createdAt,value
2023-06-11T00:01:55.991Z,15.43
2023-06-11T00:04:27.366Z,15.37
2023-06-11T00:06:57.782Z,15.32
2023-06-11T00:09:44.999Z,15.23
2023-06-11T00:12:35.334Z,15.20
2023-06-11T00:15:06.350Z,15.18
2023-06-11T00:17:38.701Z,15.13
2023-06-11T00:20:09.597Z,15.07
2023-06-11T00:22:41.547Z,15.04
2023-06-11T00:25:11.145Z,15.01
2023-06-11T00:27:47.890Z,14.97
2023-06-11T00:30:17.513Z,14.92
2023-06-11T00:32:46.513Z,14.91
2023-06-11T00:35:22.685Z,14.87
2023-06-11T00:37:50.677Z,14.81
2023-06-11T00:40:22.172Z,14.76
2023-06-11T00:42:58.333Z,14.70
2023-06-11T00:45:56.679Z,14.67
2023-06-11T00:48:24.986Z,14.65
2023-06-11T00:50:52.403Z,14.62
2023-06-11T00:53:40.886Z,14.58
2023-06-11T00:56:07.887Z,14.52
2023-06-11T00:58:36.276Z,14.50
2023-06-11T01:01:06.143Z,14.49
2023-06-11T01:03:42.009Z,14.46
2023-06-11T01:06:34.190Z,14.45
2023-06-11T01:09:04.917Z,14.42
2023-06-11T01:11:35.681Z,14.36
2023-06-11T01:14:46.090Z,14.34
2023-06-11T01:17:41.314Z,14.33
2023-06-11T01:20:26.021Z,14.31
2023-06-11T01:23:35.541Z,14.29
2023-06-11T01:26:43.477Z,14.27
2023-06-11T01:29:22.279Z,14.28
2023-06-11T01:31:51.269Z,14.27
2023-06-11T01:34:25.945Z,14.25
2023-06-11T01:36:52.887Z,14.22
2023-06-11T01:39:51.969Z,14.19
2023-06-11T01:42:38.355Z,14.14
2023-06-11T01:45:09.192Z,14.11
2023-06-11T01:47:37.745Z,14.07
2023-06-11T01:50:07.817Z,14.06
2023-06-11T01:52:42.161Z,14.03
2023-06-11T01:55:45.620Z,14.00
2023-06-11T01:58:12.785Z,13.96
2023-06-11T02:00:43.863Z,13.94
2023-06-11T02:03:14.242Z,13.91
2023-06-11T02:05:43.712Z,13.88
2023-06-11T02:08:13.700Z,13.88
2023-06-11T02:10:52.878Z,13.85
2023-06-11T02:13:31.157Z,13.83
2023-06-11T02:15:59.497Z,13.79
2023-06-11T02:18:26.287Z,13.73
2023-06-11T02:20:53.486Z,13.70
2023-06-11T02:23:20.775Z,13.69
2023-06-11T02:25:48.036Z,13.67
2023-06-11T02:28:16.745Z,13.68
2023-06-11T02:30:43.702Z,13.65
2023-06-11T02:33:13.649Z,13.59
2023-06-11T02:35:40.683Z,13.59
2023-06-11T02:38:07.598Z,13.58
2023-06-11T02:40:34.851Z,13.56
2023-06-11T02:43:02.214Z,13.54
2023-06-11T02:45:36.490Z,13.51
2023-06-11T02:48:03.890Z,13.51
2023-06-11T02:50:31.006Z,13.51
2023-06-11T02:52:59.921Z,13.51
2023-06-11T02:55:27.187Z,13.50
2023-06-11T02:58:03.117Z,13.45
2023-06-11T03:00:30.330Z,13.43
2023-06-11T03:02:57.401Z,13.39
2023-06-11T03:05:44.961Z,13.39
2023-06-11T03:08:12.015Z,13.40
2023-06-11T03:10:39.816Z,13.39
2023-06-11T03:13:16.201Z,13.38
2023-06-11T03:15:43.166Z,13.37
2023-06-11T03:18:21.344Z,13.38
2023-06-11T03:20:48.304Z,13.38
2023-06-11T03:23:16.038Z,13.37
2023-06-11T03:25:43.885Z,13.39
2023-06-11T03:28:13.773Z,13.40
2023-06-11T03:30:40.766Z,13.39
2023-06-11T03:33:10.703Z,13.41
2023-06-11T03:35:40.604Z,13.40
2023-06-11T03:38:08.007Z,13.39
2023-06-11T03:40:35.163Z,13.38
2023-06-11T03:43:02.245Z,13.42
2023-06-11T03:45:29.234Z,13.44
2023-06-11T03:47:59.650Z,13.46
2023-06-11T03:50:37.609Z,13.47
2023-06-11T03:53:05.040Z,13.49
2023-06-11T03:55:32.194Z,13.50
2023-06-11T03:57:59.240Z,13.53
2023-06-11T04:00:39.409Z,13.57
2023-06-11T04:03:06.606Z,13.61
2023-06-11T04:05:37.271Z,13.62
2023-06-11T04:08:07.298Z,13.68
2023-06-11T04:10:47.550Z,13.73
2023-06-11T04:13:32.267Z,13.77
2023-06-11T04:16:04.415Z,13.81
2023-06-11T04:18:33.968Z,13.88
2023-06-11T04:21:01.469Z,13.95
2023-06-11T04:23:28.325Z,13.99
2023-06-11T04:26:04.636Z,14.02
2023-06-11T04:28:36.783Z,14.08
2023-06-11T04:31:04.932Z,14.17
2023-06-11T04:33:37.334Z,14.26
2023-06-11T04:36:05.642Z,14.37
2023-06-11T04:38:32.813Z,14.49
2023-06-11T04:41:01.241Z,14.58
2023-06-11T04:43:48.950Z,14.67
2023-06-11T04:46:16.762Z,14.71
2023-06-11T04:48:43.664Z,14.72
2023-06-11T04:51:44.235Z,14.74
2023-06-11T04:54:33.665Z,14.74
2023-06-11T04:57:00.520Z,14.81
2023-06-11T04:59:27.757Z,14.88
2023-06-11T05:01:56.042Z,14.91
2023-06-11T05:04:26.189Z,14.97
2023-06-11T05:06:58.529Z,15.04
2023-06-11T05:09:25.998Z,15.16
2023-06-11T05:11:52.975Z,15.25
2023-06-11T05:14:20.339Z,15.36
2023-06-11T05:17:17.490Z,15.48
2023-06-11T05:19:44.418Z,15.71
2023-06-11T05:22:11.518Z,16.04
2023-06-11T05:24:42.081Z,16.15
2023-06-11T05:27:09.503Z,16.24
2023-06-11T05:29:53.869Z,16.50
2023-06-11T05:32:23.406Z,16.87
2023-06-11T05:34:53.423Z,17.17
2023-06-11T05:37:20.385Z,17.57
2023-06-11T05:39:47.406Z,18.04
2023-06-11T05:42:40.206Z,18.41
2023-06-11T05:45:36.464Z,18.68
2023-06-11T05:48:08.921Z,18.92
2023-06-11T05:50:36.084Z,19.22
2023-06-11T05:53:02.964Z,19.41
2023-06-11T05:55:30.216Z,19.71
2023-06-11T05:57:57.059Z,19.90
2023-06-11T06:00:28.315Z,20.13
2023-06-11T06:03:56.234Z,20.06
2023-06-11T06:06:44.063Z,20.07
2023-06-11T06:09:13.499Z,19.96
2023-06-11T06:11:41.360Z,19.90
2023-06-11T06:14:49.426Z,19.97
2023-06-11T06:17:16.551Z,19.93
2023-06-11T06:20:05.060Z,20.23
2023-06-11T06:22:52.393Z,20.31
2023-06-11T06:25:19.730Z,20.24
2023-06-11T06:27:46.836Z,20.28
2023-06-11T06:30:15.244Z,20.44
2023-06-11T06:32:43.916Z,20.74
2023-06-11T06:35:53.921Z,20.89
2023-06-11T06:38:21.520Z,20.86
2023-06-11T06:40:48.641Z,20.93
2023-06-11T06:43:16.370Z,21.10
2023-06-11T06:45:43.467Z,21.33
2023-06-11T06:48:51.605Z,21.64
2023-06-11T06:52:19.653Z,21.38
2023-06-11T06:54:48.615Z,21.28
2023-06-11T06:57:38.281Z,21.27
2023-06-11T07:00:08.583Z,21.32
2023-06-11T07:02:39.263Z,21.54
2023-06-11T07:05:06.642Z,21.85
2023-06-11T07:07:50.754Z,22.07
2023-06-11T07:10:38.298Z,22.02
2023-06-11T07:13:28.081Z,21.80
2023-06-11T07:15:55.258Z,21.65
2023-06-11T07:18:22.756Z,21.66
2023-06-11T07:20:52.880Z,21.59
2023-06-11T07:23:23.395Z,21.17
2023-06-11T07:26:16.328Z,21.22
2023-06-11T07:28:43.339Z,21.41
2023-06-11T07:31:30.927Z,21.49
2023-06-11T07:34:07.073Z,21.61
2023-06-11T07:36:34.255Z,21.75
2023-06-11T07:39:04.033Z,21.96
2023-06-11T07:41:34.792Z,22.17
2023-06-11T07:44:01.875Z,22.46
2023-06-11T07:46:29.534Z,22.70
2023-06-11T07:49:05.557Z,22.55
2023-06-11T07:51:32.998Z,22.26
2023-06-11T07:54:01.397Z,22.34
2023-06-11T07:56:31.919Z,22.39
2023-06-11T07:58:59.727Z,22.55
2023-06-11T08:01:30.152Z,22.79
2023-06-11T08:03:57.488Z,22.77
2023-06-11T08:06:44.777Z,22.55
2023-06-11T08:09:11.568Z,22.34
2023-06-11T08:11:49.581Z,22.41
2023-06-11T08:14:21.301Z,22.60
2023-06-11T08:16:50.956Z,22.71
2023-06-11T08:19:38.581Z,22.41
2023-06-11T08:22:05.631Z,22.15
2023-06-11T08:24:32.796Z,22.24
2023-06-11T08:27:03.098Z,22.52
2023-06-11T08:29:59.772Z,22.72
2023-06-11T08:32:35.664Z,22.77
2023-06-11T08:35:02.519Z,22.87
2023-06-11T08:37:38.922Z,23.07
2023-06-11T08:40:21.546Z,23.00
2023-06-11T08:42:48.616Z,22.72
2023-06-11T08:45:16.058Z,22.92
2023-06-11T08:48:09.192Z,23.15
2023-06-11T08:50:36.949Z,23.53
2023-06-11T08:53:31.981Z,23.65
2023-06-11T08:56:00.556Z,23.52
2023-06-11T08:58:32.302Z,23.35
2023-06-11T09:01:52.929Z,22.88
2023-06-11T09:04:50.231Z,23.00
2023-06-11T09:07:24.593Z,23.28
2023-06-11T09:10:11.492Z,23.51
2023-06-11T09:12:39.169Z,23.64
2023-06-11T09:15:10.297Z,23.87
2023-06-11T09:17:39.080Z,23.96
2023-06-11T09:20:09.872Z,23.89
2023-06-11T09:22:56.718Z,23.85
2023-06-11T09:25:26.414Z,23.78
2023-06-11T09:27:53.343Z,23.37
2023-06-11T09:30:29.354Z,23.11
2023-06-11T09:33:15.922Z,23.35
2023-06-11T09:36:13.516Z,23.33
2023-06-11T09:38:40.825Z,22.88
2023-06-11T09:41:32.804Z,22.58
2023-06-11T09:44:01.191Z,22.36
2023-06-11T09:46:38.015Z,22.31
2023-06-11T09:49:21.109Z,22.83
2023-06-11T09:51:49.941Z,23.16
2023-06-11T09:54:26.349Z,23.16
2023-06-11T09:56:53.698Z,22.97
2023-06-11T09:59:26.180Z,23.04
2023-06-11T10:02:04.633Z,23.40
2023-06-11T10:04:31.945Z,23.51
2023-06-11T10:07:01.124Z,23.23
2023-06-11T10:09:31.933Z,22.92
2023-06-11T10:12:02.429Z,22.81
2023-06-11T10:14:30.939Z,23.03
2023-06-11T10:17:21.720Z,23.43
2023-06-11T10:20:10.329Z,23.77
2023-06-11T10:22:45.947Z,23.89
2023-06-11T10:25:13.008Z,24.03
2023-06-11T10:27:43.086Z,24.34
2023-06-11T10:30:25.708Z,24.45
2023-06-11T10:32:54.598Z,24.66
2023-06-11T10:35:24.922Z,24.79
2023-06-11T10:38:06.572Z,25.04
2023-06-11T10:40:35.820Z,25.34
2023-06-11T10:43:15.091Z,25.38
2023-06-11T10:46:20.871Z,25.25
2023-06-11T10:48:55.326Z,25.26
2023-06-11T10:51:22.869Z,25.22
2023-06-11T10:53:59.025Z,25.07
2023-06-11T10:56:32.690Z,24.88
2023-06-11T10:59:09.689Z,24.57
2023-06-11T11:01:37.707Z,24.38
2023-06-11T11:04:13.611Z,24.49
2023-06-11T11:06:44.314Z,24.39
2023-06-11T11:09:12.318Z,24.20
2023-06-11T11:11:48.778Z,23.93
2023-06-11T11:14:18.384Z,23.64
2023-06-11T11:16:49.768Z,23.48
2023-06-11T11:19:24.803Z,23.76
2023-06-11T11:22:01.895Z,24.20
2023-06-11T11:24:35.025Z,24.57
2023-06-11T11:27:03.335Z,24.62
2023-06-11T11:29:33.469Z,24.45
2023-06-11T11:32:00.545Z,24.24
2023-06-11T11:34:38.648Z,24.24
2023-06-11T11:37:07.281Z,24.57
2023-06-11T11:39:34.702Z,24.58
2023-06-11T11:42:08.025Z,24.59
2023-06-11T11:44:42.900Z,24.41
2023-06-11T11:47:22.860Z,24.19
2023-06-11T11:50:02.399Z,24.31
2023-06-11T11:52:29.562Z,24.37
2023-06-11T11:54:59.520Z,24.01
2023-06-11T11:57:29.636Z,23.74
2023-06-11T12:00:24.800Z,23.74
2023-06-11T12:02:52.091Z,24.14
2023-06-11T12:05:40.803Z,24.30
2023-06-11T12:08:08.632Z,24.06
2023-06-11T12:10:36.169Z,24.00
2023-06-11T12:13:06.362Z,24.19
2023-06-11T12:15:33.376Z,24.27
2023-06-11T12:18:00.901Z,24.45
2023-06-11T12:20:29.153Z,24.59
2023-06-11T12:22:56.099Z,24.87
2023-06-11T12:25:33.536Z,25.13
2023-06-11T12:28:21.359Z,25.69
2023-06-11T12:30:48.676Z,26.15
2023-06-11T12:33:16.561Z,26.10
2023-06-11T12:35:44.813Z,25.70
2023-06-11T12:38:19.124Z,25.18
2023-06-11T12:40:48.542Z,24.64
2023-06-11T12:43:15.756Z,24.61
2023-06-11T12:46:02.264Z,24.98
2023-06-11T12:48:29.270Z,25.32
2023-06-11T12:50:59.149Z,25.45
2023-06-11T12:53:26.816Z,25.61
2023-06-11T12:55:53.866Z,25.62
2023-06-11T12:58:23.491Z,25.47
2023-06-11T13:00:53.480Z,25.55
2023-06-11T13:03:40.858Z,25.57
2023-06-11T13:06:08.789Z,25.72
2023-06-11T13:09:05.330Z,25.73
2023-06-11T13:11:44.656Z,25.06
2023-06-11T13:14:14.259Z,24.63
2023-06-11T13:16:47.192Z,24.80
2023-06-11T13:19:37.673Z,25.14
2023-06-11T13:22:07.680Z,25.20
2023-06-11T13:24:55.268Z,24.83
2023-06-11T13:27:22.243Z,24.54
2023-06-11T13:30:10.872Z,24.73
2023-06-11T13:33:02.035Z,24.97
2023-06-11T13:35:38.863Z,25.24
2023-06-11T13:38:08.661Z,25.46
2023-06-11T13:40:45.417Z,25.60
2023-06-11T13:43:31.743Z,25.78
2023-06-11T13:45:59.465Z,25.84
2023-06-11T13:48:27.384Z,25.31
2023-06-11T13:50:56.210Z,25.03
2023-06-11T13:53:24.602Z,25.12
2023-06-11T13:55:53.031Z,25.23
2023-06-11T13:58:22.901Z,25.31
2023-06-11T14:00:57.977Z,25.32
2023-06-11T14:03:24.997Z,24.98
2023-06-11T14:06:13.755Z,24.53
2023-06-11T14:08:42.163Z,24.18
2023-06-11T14:11:24.669Z,24.20
2023-06-11T14:13:51.579Z,24.53
2023-06-11T14:16:28.502Z,24.85
2023-06-11T14:19:28.781Z,25.09
2023-06-11T14:21:55.849Z,25.18
2023-06-11T14:25:14.289Z,25.25
2023-06-11T14:27:41.738Z,25.17
2023-06-11T14:30:09.202Z,25.06
2023-06-11T14:32:48.422Z,24.94
2023-06-11T14:35:42.985Z,24.78
2023-06-11T14:38:10.120Z,24.68
2023-06-11T14:40:36.941Z,24.73
2023-06-11T14:43:03.907Z,24.73
2023-06-11T14:45:41.185Z,24.68
2023-06-11T14:48:09.305Z,24.55
2023-06-11T14:50:36.283Z,24.50
2023-06-11T14:53:03.263Z,24.52
2023-06-11T14:55:30.254Z,24.52
2023-06-11T14:57:57.539Z,24.30
2023-06-11T15:00:47.314Z,24.12
2023-06-11T15:03:14.481Z,23.96
2023-06-11T15:06:05.666Z,23.93
2023-06-11T15:08:32.466Z,24.01
2023-06-11T15:11:02.342Z,24.11
2023-06-11T15:13:29.378Z,24.12
2023-06-11T15:15:58.759Z,24.17
2023-06-11T15:18:26.947Z,24.16
2023-06-11T15:20:55.002Z,24.16
2023-06-11T15:23:23.190Z,24.16
2023-06-11T15:25:52.008Z,24.10
2023-06-11T15:28:19.449Z,23.98
2023-06-11T15:31:22.298Z,23.88
2023-06-11T15:33:49.405Z,23.72
2023-06-11T15:36:16.554Z,23.60
2023-06-11T15:38:44.222Z,23.54
2023-06-11T15:41:20.071Z,23.58
2023-06-11T15:43:50.181Z,23.70
2023-06-11T15:46:19.156Z,23.76
2023-06-11T15:48:47.109Z,23.77
2023-06-11T15:51:14.590Z,23.78
2023-06-11T15:53:41.450Z,23.79
2023-06-11T15:56:16.672Z,23.76
2023-06-11T15:58:52.522Z,23.60
2023-06-11T16:01:32.494Z,23.49
2023-06-11T16:04:30.008Z,23.51
2023-06-11T16:07:11.415Z,23.56
2023-06-11T16:09:42.287Z,23.65
2023-06-11T16:13:00.421Z,23.67
2023-06-11T16:15:27.806Z,23.68
2023-06-11T16:18:15.629Z,23.66
2023-06-11T16:21:00.459Z,23.59
2023-06-11T16:23:30.561Z,23.55
2023-06-11T16:25:58.856Z,23.53
2023-06-11T16:28:25.888Z,23.53
2023-06-11T16:30:53.300Z,23.53
2023-06-11T16:33:20.418Z,23.50
2023-06-11T16:35:50.486Z,23.48
2023-06-11T16:38:17.435Z,23.49
2023-06-11T16:40:44.949Z,23.51
2023-06-11T16:43:16.085Z,23.51
2023-06-11T16:46:13.245Z,23.49
2023-06-11T16:49:17.332Z,23.40
2023-06-11T16:52:03.888Z,23.29
2023-06-11T16:54:30.965Z,23.26
2023-06-11T16:56:58.137Z,23.24
2023-06-11T16:59:45.746Z,23.25
2023-06-11T17:02:28.124Z,23.24
2023-06-11T17:04:55.861Z,23.24
2023-06-11T17:07:23.571Z,23.20
2023-06-11T17:09:53.340Z,23.13
2023-06-11T17:12:45.183Z,23.09
2023-06-11T17:15:15.369Z,23.05
2023-06-11T17:17:43.649Z,23.00
2023-06-11T17:20:12.115Z,22.92
2023-06-11T17:22:47.757Z,22.84
2023-06-11T17:25:26.188Z,22.76
2023-06-11T17:27:54.055Z,22.70
2023-06-11T17:30:24.467Z,22.65
2023-06-11T17:33:16.968Z,22.60
2023-06-11T17:36:04.564Z,22.56
2023-06-11T17:38:31.807Z,22.50
2023-06-11T17:41:01.713Z,22.45
2023-06-11T17:43:40.221Z,22.39
2023-06-11T17:46:24.277Z,22.32
2023-06-11T17:49:33.006Z,22.29
2023-06-11T17:52:16.658Z,22.25
2023-06-11T17:55:16.307Z,22.22
2023-06-11T17:58:44.703Z,22.20
2023-06-11T18:01:12.697Z,22.16
2023-06-11T18:03:39.698Z,22.13
2023-06-11T18:06:56.322Z,22.07
2023-06-11T18:09:45.338Z,22.01
2023-06-11T18:12:12.494Z,21.97
2023-06-11T18:14:39.525Z,21.92
2023-06-11T18:17:10.225Z,21.87
2023-06-11T18:19:57.895Z,21.80
2023-06-11T18:22:27.868Z,21.72
2023-06-11T18:25:26.176Z,21.64
2023-06-11T18:28:02.897Z,21.57
2023-06-11T18:30:52.796Z,21.51
2023-06-11T18:33:32.338Z,21.43
2023-06-11T18:36:09.177Z,21.37
2023-06-11T18:38:36.831Z,21.33
2023-06-11T18:41:43.312Z,21.30
2023-06-11T18:44:13.181Z,21.25
2023-06-11T18:46:50.387Z,21.20
2023-06-11T18:49:17.824Z,21.15
2023-06-11T18:51:45.981Z,21.08
2023-06-11T18:54:18.407Z,20.98
2023-06-11T18:56:54.488Z,20.90
2023-06-11T18:59:36.694Z,20.85
2023-06-11T19:02:07.773Z,20.77
2023-06-11T19:04:35.530Z,20.68
2023-06-11T19:07:06.314Z,20.60
2023-06-11T19:09:54.320Z,20.57
2023-06-11T19:12:21.526Z,20.50
2023-06-11T19:14:48.475Z,20.44
2023-06-11T19:17:16.490Z,20.36
2023-06-11T19:19:47.200Z,20.32
2023-06-11T19:22:14.238Z,20.28
2023-06-11T19:24:41.520Z,20.27
2023-06-11T19:27:12.511Z,20.22
2023-06-11T19:29:39.542Z,20.15
2023-06-11T19:33:01.004Z,20.12
2023-06-11T19:35:29.253Z,20.06
2023-06-11T19:37:56.485Z,19.98
2023-06-11T19:40:23.626Z,19.88
2023-06-11T19:42:50.714Z,19.79
2023-06-11T19:45:21.045Z,19.70
2023-06-11T19:47:49.294Z,19.64
2023-06-11T19:50:21.337Z,19.56
2023-06-11T19:53:03.655Z,19.50
2023-06-11T19:55:37.640Z,19.44
2023-06-11T19:58:07.421Z,19.37
2023-06-11T20:00:50.346Z,19.33
2023-06-11T20:03:21.420Z,19.26
2023-06-11T20:05:49.030Z,19.22
2023-06-11T20:08:25.862Z,19.16
2023-06-11T20:10:59.299Z,19.12
2023-06-11T20:13:34.763Z,19.11
2023-06-11T20:16:05.369Z,19.08
2023-06-11T20:18:45.008Z,19.10
2023-06-11T20:21:12.695Z,19.12
2023-06-11T20:23:47.897Z,19.12
2023-06-11T20:26:27.849Z,19.14
2023-06-11T20:28:55.397Z,19.12
2023-06-11T20:31:36.711Z,19.09
2023-06-11T20:34:53.803Z,19.04
2023-06-11T20:37:21.685Z,18.98
2023-06-11T20:39:59.592Z,18.91
2023-06-11T20:42:29.371Z,18.81
2023-06-11T20:44:56.318Z,18.73
2023-06-11T20:47:28.561Z,18.62
2023-06-11T20:50:16.618Z,18.53
2023-06-11T20:52:44.101Z,18.52
2023-06-11T20:55:45.345Z,18.51
2023-06-11T20:58:24.268Z,18.52
2023-06-11T21:00:51.494Z,18.51
2023-06-11T21:03:39.333Z,18.48
2023-06-11T21:06:29.855Z,18.45
2023-06-11T21:09:09.336Z,18.37
2023-06-11T21:11:37.531Z,18.29
2023-06-11T21:14:14.329Z,18.24
2023-06-11T21:16:42.988Z,18.17
2023-06-11T21:19:13.134Z,18.13
2023-06-11T21:22:09.726Z,18.08
2023-06-11T21:24:45.770Z,18.02
2023-06-11T21:27:16.049Z,18.02
2023-06-11T21:29:43.570Z,18.02
2023-06-11T21:32:31.210Z,18.02
2023-06-11T21:36:00.885Z,17.98
2023-06-11T21:38:48.373Z,17.93
2023-06-11T21:41:35.994Z,17.93
2023-06-11T21:44:16.519Z,17.91
2023-06-11T21:46:46.887Z,17.87
2023-06-11T21:49:16.502Z,17.83
2023-06-11T21:51:46.330Z,17.79
2023-06-11T21:54:13.712Z,17.72
2023-06-11T21:56:58.521Z,17.69
2023-06-11T21:59:28.575Z,17.66
2023-06-11T22:02:05.013Z,17.64
2023-06-11T22:04:42.605Z,17.60
2023-06-11T22:07:13.433Z,17.60
2023-06-11T22:09:45.923Z,17.59
2023-06-11T22:12:23.876Z,17.55
2023-06-11T22:14:50.753Z,17.50
2023-06-11T22:17:32.995Z,17.47
2023-06-11T22:20:09.898Z,17.42
2023-06-11T22:22:48.685Z,17.35
2023-06-11T22:25:15.659Z,17.31
2023-06-11T22:27:52.432Z,17.26
2023-06-11T22:30:20.011Z,17.21
2023-06-11T22:32:47.052Z,17.17
2023-06-11T22:35:13.995Z,17.13
2023-06-11T22:37:41.068Z,17.09
2023-06-11T22:40:20.598Z,17.05
2023-06-11T22:42:47.461Z,17.02
2023-06-11T22:45:14.480Z,16.95
2023-06-11T22:47:48.573Z,16.90
2023-06-11T22:50:35.135Z,16.83
2023-06-11T22:53:05.463Z,16.78
2023-06-11T22:55:32.555Z,16.70
2023-06-11T22:58:00.586Z,16.62
2023-06-11T23:00:27.623Z,16.53
2023-06-11T23:03:01.129Z,16.43
2023-06-11T23:05:39.425Z,16.31
2023-06-11T23:08:06.749Z,16.20
2023-06-11T23:10:45.306Z,16.10
2023-06-11T23:13:21.421Z,16.00
2023-06-11T23:16:00.987Z,15.89
2023-06-11T23:18:32.427Z,15.72
2023-06-11T23:21:04.020Z,15.60
2023-06-11T23:23:33.122Z,15.45
2023-06-11T23:26:00.284Z,15.36
2023-06-11T23:28:34.579Z,15.37
2023-06-11T23:31:02.101Z,15.36
2023-06-11T23:33:31.142Z,15.35
2023-06-11T23:35:59.624Z,15.37
2023-06-11T23:38:26.830Z,15.41
2023-06-11T23:41:16.938Z,15.42
2023-06-11T23:43:44.109Z,15.45
2023-06-11T23:46:13.678Z,15.49
2023-06-11T23:48:41.425Z,15.57
2023-06-11T23:51:14.440Z,15.60
2023-06-11T23:54:01.847Z,15.62
2023-06-11T23:56:31.842Z,15.64
2023-06-11T23:58:59.252Z,15.60
